createdAt,value
2023-03-17T00:03:25.954Z,97460.31
2023-03-17T00:08:32.876Z,97454.03
2023-03-17T00:13:35.340Z,97463.50
2023-03-17T00:18:37.593Z,97463.44
2023-03-17T00:23:41.197Z,97455.31
2023-03-17T00:28:43.333Z,97451.31
2023-03-17T00:33:46.491Z,97453.16
2023-03-17T00:38:51.009Z,97459.03
2023-03-17T00:43:53.426Z,97469.59
2023-03-17T00:48:55.453Z,97478.84
2023-03-17T00:53:58.778Z,97473.84
2023-03-17T00:59:00.781Z,97480.47
2023-03-17T01:04:02.904Z,97480.53
2023-03-17T01:09:06.237Z,97475.53
2023-03-17T01:14:09.572Z,97465.44
2023-03-17T01:19:13.299Z,97464.38
2023-03-17T01:24:16.631Z,97456.16
2023-03-17T01:29:18.589Z,97450.78
2023-03-17T01:34:20.561Z,97453.63
2023-03-17T01:39:23.878Z,97456.44
2023-03-17T01:44:25.806Z,97453.00
2023-03-17T01:49:31.226Z,97454.78
2023-03-17T01:54:39.985Z,97456.75
2023-03-17T01:59:45.518Z,97456.41
2023-03-17T02:04:47.869Z,97453.28
2023-03-17T02:09:52.572Z,97452.19
2023-03-17T02:14:54.901Z,97445.97
2023-03-17T02:19:57.009Z,97440.50
2023-03-17T02:25:00.763Z,97428.00
2023-03-17T02:30:04.470Z,97414.00
2023-03-17T02:35:08.310Z,97403.59
2023-03-17T02:40:13.948Z,97403.16
2023-03-17T02:45:16.106Z,97397.59
2023-03-17T02:50:21.230Z,97381.31
2023-03-17T02:55:24.565Z,97366.81
2023-03-17T03:00:26.495Z,97362.19
2023-03-17T03:05:28.823Z,97353.25
2023-03-17T03:10:32.660Z,97352.63
2023-03-17T03:15:35.716Z,97351.25
2023-03-17T03:20:37.730Z,97366.50
2023-03-17T03:25:41.689Z,97369.38
2023-03-17T03:30:44.746Z,97369.72
2023-03-17T03:35:46.805Z,97373.31
2023-03-17T03:40:50.304Z,97377.22
2023-03-17T03:45:52.512Z,97377.72
2023-03-17T03:50:57.035Z,97376.25
2023-03-17T03:56:00.872Z,97374.81
2023-03-17T04:01:04.375Z,97368.66
2023-03-17T04:06:06.802Z,97372.47
2023-03-17T04:11:10.098Z,97376.09
2023-03-17T04:16:12.269Z,97361.06
2023-03-17T04:21:18.304Z,97368.88
2023-03-17T04:26:23.075Z,97368.81
2023-03-17T04:31:25.757Z,97364.50
2023-03-17T04:36:27.947Z,97367.50
2023-03-17T04:41:31.267Z,97370.25
2023-03-17T04:46:34.268Z,97346.75
2023-03-17T04:51:36.849Z,97344.75
2023-03-17T04:56:40.409Z,97344.94
2023-03-17T05:01:42.626Z,97332.34
2023-03-17T05:06:44.636Z,97325.94
2023-03-17T05:11:48.187Z,97333.69
2023-03-17T05:16:50.931Z,97351.59
2023-03-17T05:21:52.939Z,97352.03
2023-03-17T05:26:56.253Z,97354.47
2023-03-17T05:31:58.211Z,97350.22
2023-03-17T05:37:00.813Z,97356.94
2023-03-17T05:42:04.482Z,97365.31
2023-03-17T05:47:08.011Z,97372.06
2023-03-17T05:52:10.064Z,97352.44
2023-03-17T05:57:13.579Z,97373.97
2023-03-17T06:02:15.721Z,97380.41
2023-03-17T06:07:17.768Z,97375.50
2023-03-17T06:12:21.468Z,97374.78
2023-03-17T06:17:23.779Z,97383.00
2023-03-17T06:22:25.989Z,97369.16
2023-03-17T06:27:29.292Z,97363.13
2023-03-17T06:32:31.553Z,97367.66
2023-03-17T06:37:34.142Z,97379.31
2023-03-17T06:42:37.517Z,97382.50
2023-03-17T06:47:39.971Z,97392.09
2023-03-17T06:52:41.973Z,97371.53
2023-03-17T06:57:45.437Z,97370.66
2023-03-17T07:02:47.421Z,97382.09
2023-03-17T07:07:49.778Z,97379.38
2023-03-17T07:12:53.270Z,97384.66
2023-03-17T07:17:55.694Z,97389.00
2023-03-17T07:22:58.089Z,97387.03
2023-03-17T07:28:01.404Z,97358.53
2023-03-17T07:33:04.349Z,97380.66
2023-03-17T07:38:06.498Z,97385.78
2023-03-17T07:43:09.850Z,97384.47
2023-03-17T07:48:11.813Z,97377.72
2023-03-17T07:53:13.863Z,97382.94
2023-03-17T07:58:17.193Z,97394.13
2023-03-17T08:03:19.441Z,97408.69
2023-03-17T08:08:22.160Z,97396.16
2023-03-17T08:13:25.910Z,97405.22
2023-03-17T08:18:28.093Z,97412.66
2023-03-17T08:23:30.986Z,97404.75
2023-03-17T08:28:34.485Z,97394.22
2023-03-17T08:33:36.634Z,97400.31
2023-03-17T08:38:40.587Z,97400.19
2023-03-17T08:43:45.334Z,97408.00
2023-03-17T08:48:49.273Z,97404.38
2023-03-17T08:53:51.751Z,97405.97
2023-03-17T08:58:55.194Z,97402.44
2023-03-17T09:03:57.233Z,97393.63
2023-03-17T09:09:00.319Z,97383.00
2023-03-17T09:14:03.695Z,97387.34
2023-03-17T09:19:05.653Z,97388.34
2023-03-17T09:24:08.456Z,97379.78
2023-03-17T09:29:12.986Z,97376.84
2023-03-17T09:34:14.928Z,97377.38
2023-03-17T09:39:17.105Z,97374.56
2023-03-17T09:44:45.945Z,97364.25
2023-03-17T09:49:52.295Z,97359.53
2023-03-17T09:54:54.925Z,97349.44
2023-03-17T10:00:01.863Z,97337.44
2023-03-17T10:05:13.735Z,97348.19
2023-03-17T10:10:21.832Z,97332.25
2023-03-17T10:15:32.401Z,97323.16
2023-03-17T10:20:42.548Z,97331.38
2023-03-17T10:25:46.615Z,97337.53
2023-03-17T10:30:50.128Z,97332.22
2023-03-17T10:35:52.117Z,97324.84
2023-03-17T10:40:56.830Z,97325.41
2023-03-17T10:46:02.432Z,97321.03
2023-03-17T10:51:08.714Z,97313.19
2023-03-17T10:56:20.402Z,97310.00
2023-03-17T11:01:30.233Z,97311.38
2023-03-17T11:06:37.436Z,97309.66
2023-03-17T11:11:44.333Z,97296.44
2023-03-17T11:16:54.203Z,97263.16
2023-03-17T11:22:04.916Z,97268.78
2023-03-17T11:27:13.250Z,97271.31
2023-03-17T11:32:28.687Z,97271.94
2023-03-17T11:37:51.449Z,97274.50
2023-03-17T11:43:05.561Z,97275.56
2023-03-17T11:48:30.047Z,97258.78
2023-03-17T11:53:50.165Z,97260.00
2023-03-17T11:58:56.381Z,97253.31
2023-03-17T12:04:11.101Z,97246.88
2023-03-17T12:09:22.141Z,97245.00
2023-03-17T12:14:30.075Z,97249.16
2023-03-17T12:19:39.689Z,97244.53
2023-03-17T12:24:48.147Z,97233.03
2023-03-17T12:29:57.122Z,97232.13
2023-03-17T12:35:02.492Z,97233.69
2023-03-17T12:40:10.277Z,97227.53
2023-03-17T12:45:29.583Z,97226.22
2023-03-17T12:50:46.649Z,97218.66
2023-03-17T12:55:51.106Z,97216.69
2023-03-17T13:01:01.000Z,97224.16
2023-03-17T13:06:08.518Z,97204.94
2023-03-17T13:11:17.819Z,97217.97
2023-03-17T13:16:28.061Z,97197.50
2023-03-17T13:21:34.622Z,97206.13
2023-03-17T13:27:01.867Z,97191.16
2023-03-17T13:32:31.496Z,97194.06
2023-03-17T13:37:47.761Z,97187.44
2023-03-17T13:43:15.382Z,97182.03
2023-03-17T13:48:34.293Z,97176.72
2023-03-17T13:53:41.308Z,97168.13
2023-03-17T13:58:53.247Z,97165.56
2023-03-17T14:03:56.826Z,97155.69
2023-03-17T14:09:07.984Z,97154.25
2023-03-17T14:14:33.399Z,97155.50
2023-03-17T14:19:38.996Z,97139.41
2023-03-17T14:24:42.266Z,97140.50
2023-03-17T14:29:44.452Z,97132.63
2023-03-17T14:34:48.672Z,97118.94
2023-03-17T14:39:54.330Z,97117.41
2023-03-17T14:45:01.672Z,97122.53
2023-03-17T14:50:05.945Z,97115.44
2023-03-17T14:55:14.794Z,97107.16
2023-03-17T15:00:33.912Z,97098.00
2023-03-17T15:05:38.701Z,97092.34
2023-03-17T15:10:43.600Z,97092.06
2023-03-17T15:15:45.924Z,97078.06
2023-03-17T15:20:47.887Z,97067.00
2023-03-17T15:25:56.271Z,97062.53
2023-03-17T15:31:11.824Z,97070.13
2023-03-17T15:36:31.193Z,97061.06
2023-03-17T15:41:35.976Z,97061.19
2023-03-17T15:46:37.970Z,97059.69
2023-03-17T15:51:40.237Z,97064.47
2023-03-17T15:56:43.767Z,97065.00
2023-03-17T16:01:46.760Z,97072.13
2023-03-17T16:06:49.245Z,97066.94
2023-03-17T16:11:52.596Z,97070.50
2023-03-17T16:16:54.680Z,97065.44
2023-03-17T16:21:57.123Z,97072.00
2023-03-17T16:27:00.619Z,97071.69
2023-03-17T16:32:02.682Z,97061.91
2023-03-17T16:37:05.636Z,97067.81
2023-03-17T16:42:18.089Z,97066.03
2023-03-17T16:47:20.086Z,97067.38
2023-03-17T16:52:22.083Z,97054.09
2023-03-17T16:57:25.470Z,97068.56
2023-03-17T17:02:27.446Z,97078.84
2023-03-17T17:07:29.440Z,97080.22
2023-03-17T17:12:32.752Z,97079.78
2023-03-17T17:17:35.538Z,97074.88
2023-03-17T17:22:37.760Z,97078.38
2023-03-17T17:27:43.414Z,97086.22
2023-03-17T17:32:46.686Z,97088.94
2023-03-17T17:37:48.708Z,97091.81
2023-03-17T17:42:52.902Z,97087.53
2023-03-17T17:47:54.869Z,97102.44
2023-03-17T17:53:02.693Z,97098.75
2023-03-17T17:58:06.349Z,97101.56
2023-03-17T18:03:08.664Z,97099.19
2023-03-17T18:08:13.581Z,97103.66
2023-03-17T18:13:16.991Z,97105.47
2023-03-17T18:18:18.954Z,97103.66
2023-03-17T18:23:21.108Z,97099.50
2023-03-17T18:28:24.428Z,97094.47
2023-03-17T18:33:26.958Z,97080.97
2023-03-17T18:38:28.980Z,97089.97
2023-03-17T18:43:32.383Z,97083.97
2023-03-17T18:48:37.299Z,97092.34
2023-03-17T18:53:39.978Z,97094.94
2023-03-17T18:58:43.425Z,97092.53
2023-03-17T19:03:45.882Z,97068.47
2023-03-17T19:08:48.255Z,97072.72
2023-03-17T19:13:52.434Z,97071.38
2023-03-17T19:18:55.890Z,97052.88
2023-03-17T19:23:59.826Z,97050.84
2023-03-17T19:29:03.373Z,97044.34
2023-03-17T19:34:05.357Z,97047.47
2023-03-17T19:39:09.007Z,97042.31
2023-03-17T19:44:12.482Z,97043.25
2023-03-17T19:49:14.960Z,97041.31
2023-03-17T19:54:18.654Z,97031.25
2023-03-17T19:59:22.580Z,97028.19
2023-03-17T20:04:24.515Z,97028.66
2023-03-17T20:09:27.322Z,97028.28
2023-03-17T20:14:30.756Z,97017.06
2023-03-17T20:19:32.928Z,97009.78
2023-03-17T20:24:35.258Z,97017.81
2023-03-17T20:29:38.742Z,97007.56
2023-03-17T20:34:43.067Z,96995.28
2023-03-17T20:39:45.253Z,97001.38
2023-03-17T20:44:52.755Z,96995.59
2023-03-17T20:49:58.579Z,96981.78
2023-03-17T20:55:00.598Z,96985.69
2023-03-17T21:00:04.809Z,97001.25
2023-03-17T21:05:07.437Z,96991.41
2023-03-17T21:10:10.471Z,96993.28
2023-03-17T21:15:14.121Z,96994.63
2023-03-17T21:20:17.129Z,96996.00
2023-03-17T21:25:20.110Z,96993.13
2023-03-17T21:30:23.481Z,96994.31
2023-03-17T21:35:26.683Z,96993.06
2023-03-17T21:40:31.125Z,96994.47
2023-03-17T21:45:34.785Z,96996.88
2023-03-17T21:50:37.141Z,96996.53
2023-03-17T21:55:39.445Z,96995.63
2023-03-17T22:00:45.904Z,97000.47
2023-03-17T22:05:48.377Z,97002.59
2023-03-17T22:10:50.422Z,96995.59
2023-03-17T22:15:53.949Z,96990.47
2023-03-17T22:20:57.426Z,96996.44
2023-03-17T22:25:59.427Z,96985.28
2023-03-17T22:31:06.624Z,96986.59
2023-03-17T22:36:09.094Z,96994.06
2023-03-17T22:41:13.924Z,96999.88
2023-03-17T22:46:17.899Z,96992.47
2023-03-17T22:51:23.309Z,96985.00
2023-03-17T22:56:26.492Z,96982.00
2023-03-17T23:01:29.915Z,96977.59
2023-03-17T23:06:32.175Z,96971.06
2023-03-17T23:11:34.182Z,96976.69
2023-03-17T23:16:37.696Z,96971.06
2023-03-17T23:21:40.032Z,96981.56
2023-03-17T23:26:42.040Z,96972.28
2023-03-17T23:31:45.573Z,96959.63
2023-03-17T23:36:47.654Z,96965.41
2023-03-17T23:41:49.988Z,96962.13
2023-03-17T23:46:53.359Z,96964.47
2023-03-17T23:51:55.330Z,96958.63
2023-03-17T23:56:57.505Z,96959.34
